sensor_id;sensor_type;location;lat;lon;timestamp;P1;durP1;ratioP1;P2;durP2;ratioP2
72301;SDS011;60235;52.234;5.186;2023-06-14T00:00:43;7.75;;;2.75;;
72301;SDS011;60235;52.234;5.186;2023-06-14T00:03:09;8.98;;;2.70;;
72301;SDS011;60235;52.234;5.186;2023-06-14T00:05:37;9.73;;;3.05;;
72301;SDS011;60235;52.234;5.186;2023-06-14T00:08:08;7.68;;;2.78;;
72301;SDS011;60235;52.234;5.186;2023-06-14T00:10:35;7.95;;;2.60;;
72301;SDS011;60235;52.234;5.186;2023-06-14T00:13:01;12.38;;;2.97;;
72301;SDS011;60235;52.234;5.186;2023-06-14T00:15:29;9.07;;;2.58;;
72301;SDS011;60235;52.234;5.186;2023-06-14T00:17:55;8.05;;;2.70;;
72301;SDS011;60235;52.234;5.186;2023-06-14T00:20:25;8.60;;;2.55;;
72301;SDS011;60235;52.234;5.186;2023-06-14T00:22:51;9.15;;;2.95;;
72301;SDS011;60235;52.234;5.186;2023-06-14T00:25:19;7.85;;;2.67;;
72301;SDS011;60235;52.234;5.186;2023-06-14T00:27:45;14.23;;;2.95;;
72301;SDS011;60235;52.234;5.186;2023-06-14T00:30:11;12.15;;;2.58;;
72301;SDS011;60235;52.234;5.186;2023-06-14T00:32:37;7.07;;;2.50;;
72301;SDS011;60235;52.234;5.186;2023-06-14T00:35:03;10.13;;;3.20;;
72301;SDS011;60235;52.234;5.186;2023-06-14T00:37:29;11.55;;;3.10;;
72301;SDS011;60235;52.234;5.186;2023-06-14T00:39:55;8.25;;;2.75;;
72301;SDS011;60235;52.234;5.186;2023-06-14T00:42:27;9.05;;;2.80;;
72301;SDS011;60235;52.234;5.186;2023-06-14T00:44:54;8.48;;;2.60;;
72301;SDS011;60235;52.234;5.186;2023-06-14T00:47:20;9.80;;;2.95;;
72301;SDS011;60235;52.234;5.186;2023-06-14T00:49:47;8.15;;;2.83;;
72301;SDS011;60235;52.234;5.186;2023-06-14T00:52:13;8.52;;;2.72;;
72301;SDS011;60235;52.234;5.186;2023-06-14T00:54:40;6.32;;;2.47;;
72301;SDS011;60235;52.234;5.186;2023-06-14T00:57:07;9.07;;;3.03;;
72301;SDS011;60235;52.234;5.186;2023-06-14T00:59:33;10.65;;;2.85;;
72301;SDS011;60235;52.234;5.186;2023-06-14T01:02:00;8.60;;;2.80;;
72301;SDS011;60235;52.234;5.186;2023-06-14T01:04:26;6.40;;;2.63;;
72301;SDS011;60235;52.234;5.186;2023-06-14T01:07:03;7.68;;;2.85;;
72301;SDS011;60235;52.234;5.186;2023-06-14T01:09:55;10.32;;;2.83;;
72301;SDS011;60235;52.234;5.186;2023-06-14T01:14:59;10.90;;;3.08;;
72301;SDS011;60235;52.234;5.186;2023-06-14T01:17:26;7.90;;;2.58;;
72301;SDS011;60235;52.234;5.186;2023-06-14T01:19:56;8.18;;;2.90;;
72301;SDS011;60235;52.234;5.186;2023-06-14T01:22:25;7.15;;;2.67;;
72301;SDS011;60235;52.234;5.186;2023-06-14T01:27:21;9.18;;;2.60;;
72301;SDS011;60235;52.234;5.186;2023-06-14T01:29:48;8.52;;;2.50;;
72301;SDS011;60235;52.234;5.186;2023-06-14T01:32:16;8.05;;;2.72;;
72301;SDS011;60235;52.234;5.186;2023-06-14T01:34:43;8.02;;;2.50;;
72301;SDS011;60235;52.234;5.186;2023-06-14T01:37:09;9.85;;;2.30;;
72301;SDS011;60235;52.234;5.186;2023-06-14T01:39:36;8.40;;;2.88;;
72301;SDS011;60235;52.234;5.186;2023-06-14T01:42:02;7.35;;;2.30;;
72301;SDS011;60235;52.234;5.186;2023-06-14T01:44:29;7.38;;;2.45;;
72301;SDS011;60235;52.234;5.186;2023-06-14T01:46:55;10.27;;;2.78;;
72301;SDS011;60235;52.234;5.186;2023-06-14T01:49:22;6.43;;;2.25;;
72301;SDS011;60235;52.234;5.186;2023-06-14T01:51:48;10.48;;;2.85;;
72301;SDS011;60235;52.234;5.186;2023-06-14T01:54:14;12.32;;;2.75;;
72301;SDS011;60235;52.234;5.186;2023-06-14T01:56:40;7.63;;;2.42;;
72301;SDS011;60235;52.234;5.186;2023-06-14T01:59:06;8.30;;;2.58;;
72301;SDS011;60235;52.234;5.186;2023-06-14T02:01:33;11.95;;;2.83;;
72301;SDS011;60235;52.234;5.186;2023-06-14T02:03:59;8.80;;;2.65;;
72301;SDS011;60235;52.234;5.186;2023-06-14T02:06:26;6.22;;;2.33;;
72301;SDS011;60235;52.234;5.186;2023-06-14T02:08:53;7.50;;;2.30;;
72301;SDS011;60235;52.234;5.186;2023-06-14T02:11:19;7.20;;;2.40;;
72301;SDS011;60235;52.234;5.186;2023-06-14T02:13:45;9.00;;;2.60;;
72301;SDS011;60235;52.234;5.186;2023-06-14T02:16:11;7.70;;;2.50;;
72301;SDS011;60235;52.234;5.186;2023-06-14T02:18:37;9.55;;;2.70;;
72301;SDS011;60235;52.234;5.186;2023-06-14T02:21:03;11.82;;;2.90;;
72301;SDS011;60235;52.234;5.186;2023-06-14T02:23:29;12.70;;;2.72;;
72301;SDS011;60235;52.234;5.186;2023-06-14T02:25:57;9.45;;;2.40;;
72301;SDS011;60235;52.234;5.186;2023-06-14T02:28:23;7.70;;;2.30;;
72301;SDS011;60235;52.234;5.186;2023-06-14T02:30:49;9.90;;;2.42;;
72301;SDS011;60235;52.234;5.186;2023-06-14T02:33:15;5.90;;;2.10;;
72301;SDS011;60235;52.234;5.186;2023-06-14T02:35:42;8.07;;;2.40;;
72301;SDS011;60235;52.234;5.186;2023-06-14T02:38:08;7.22;;;2.10;;
72301;SDS011;60235;52.234;5.186;2023-06-14T02:40:34;7.10;;;2.25;;
72301;SDS011;60235;52.234;5.186;2023-06-14T02:43:00;7.82;;;2.17;;
72301;SDS011;60235;52.234;5.186;2023-06-14T02:45:26;8.15;;;2.45;;
72301;SDS011;60235;52.234;5.186;2023-06-14T02:47:52;12.95;;;2.72;;
72301;SDS011;60235;52.234;5.186;2023-06-14T02:50:20;10.82;;;3.20;;
72301;SDS011;60235;52.234;5.186;2023-06-14T02:52:46;8.52;;;2.70;;
72301;SDS011;60235;52.234;5.186;2023-06-14T02:55:12;7.30;;;2.45;;
72301;SDS011;60235;52.234;5.186;2023-06-14T02:57:38;8.75;;;2.55;;
72301;SDS011;60235;52.234;5.186;2023-06-14T03:00:05;6.25;;;2.20;;
72301;SDS011;60235;52.234;5.186;2023-06-14T03:02:34;6.88;;;2.40;;
72301;SDS011;60235;52.234;5.186;2023-06-14T03:05:00;8.48;;;2.20;;
72301;SDS011;60235;52.234;5.186;2023-06-14T03:07:28;8.05;;;2.40;;
72301;SDS011;60235;52.234;5.186;2023-06-14T03:09:54;8.88;;;3.08;;
72301;SDS011;60235;52.234;5.186;2023-06-14T03:12:20;7.00;;;2.40;;
72301;SDS011;60235;52.234;5.186;2023-06-14T03:14:46;7.72;;;2.38;;
72301;SDS011;60235;52.234;5.186;2023-06-14T03:17:12;8.68;;;2.40;;
72301;SDS011;60235;52.234;5.186;2023-06-14T03:19:39;10.82;;;2.67;;
72301;SDS011;60235;52.234;5.186;2023-06-14T03:22:06;6.18;;;2.40;;
72301;SDS011;60235;52.234;5.186;2023-06-14T03:24:32;9.68;;;2.45;;
72301;SDS011;60235;52.234;5.186;2023-06-14T03:27:01;8.98;;;2.70;;
72301;SDS011;60235;52.234;5.186;2023-06-14T03:29:27;8.07;;;2.45;;
72301;SDS011;60235;52.234;5.186;2023-06-14T03:31:57;9.98;;;2.55;;
72301;SDS011;60235;52.234;5.186;2023-06-14T03:34:23;8.00;;;2.17;;
72301;SDS011;60235;52.234;5.186;2023-06-14T03:36:49;10.10;;;2.38;;
72301;SDS011;60235;52.234;5.186;2023-06-14T03:39:15;10.27;;;2.65;;
72301;SDS011;60235;52.234;5.186;2023-06-14T03:41:41;9.07;;;2.33;;
72301;SDS011;60235;52.234;5.186;2023-06-14T03:44:07;7.13;;;2.60;;
72301;SDS011;60235;52.234;5.186;2023-06-14T03:46:33;6.95;;;2.40;;
72301;SDS011;60235;52.234;5.186;2023-06-14T03:48:59;7.55;;;2.33;;
72301;SDS011;60235;52.234;5.186;2023-06-14T03:51:25;9.25;;;2.53;;
72301;SDS011;60235;52.234;5.186;2023-06-14T03:53:53;6.03;;;2.30;;
72301;SDS011;60235;52.234;5.186;2023-06-14T03:56:20;7.65;;;2.67;;
72301;SDS011;60235;52.234;5.186;2023-06-14T03:58:46;9.85;;;2.30;;
72301;SDS011;60235;52.234;5.186;2023-06-14T04:01:13;8.20;;;2.80;;
72301;SDS011;60235;52.234;5.186;2023-06-14T04:03:39;8.80;;;2.60;;
72301;SDS011;60235;52.234;5.186;2023-06-14T04:06:05;6.68;;;2.40;;
72301;SDS011;60235;52.234;5.186;2023-06-14T04:08:32;8.25;;;2.83;;
72301;SDS011;60235;52.234;5.186;2023-06-14T04:10:59;8.43;;;1.92;;
72301;SDS011;60235;52.234;5.186;2023-06-14T04:13:25;7.75;;;2.63;;
72301;SDS011;60235;52.234;5.186;2023-06-14T04:15:51;6.40;;;2.08;;
72301;SDS011;60235;52.234;5.186;2023-06-14T04:18:17;10.60;;;2.28;;
72301;SDS011;60235;52.234;5.186;2023-06-14T04:20:44;6.95;;;2.60;;
72301;SDS011;60235;52.234;5.186;2023-06-14T04:23:19;8.75;;;2.28;;
72301;SDS011;60235;52.234;5.186;2023-06-14T04:25:46;7.85;;;2.55;;
72301;SDS011;60235;52.234;5.186;2023-06-14T04:28:13;7.85;;;2.30;;
72301;SDS011;60235;52.234;5.186;2023-06-14T04:30:42;9.45;;;2.55;;
72301;SDS011;60235;52.234;5.186;2023-06-14T04:33:09;6.93;;;2.88;;
72301;SDS011;60235;52.234;5.186;2023-06-14T04:35:35;9.75;;;2.65;;
72301;SDS011;60235;52.234;5.186;2023-06-14T04:38:05;5.80;;;2.20;;
72301;SDS011;60235;52.234;5.186;2023-06-14T04:40:34;9.18;;;2.53;;
72301;SDS011;60235;52.234;5.186;2023-06-14T04:43:01;6.93;;;2.45;;
72301;SDS011;60235;52.234;5.186;2023-06-14T04:45:31;6.05;;;2.45;;
72301;SDS011;60235;52.234;5.186;2023-06-14T04:48:00;8.35;;;2.85;;
72301;SDS011;60235;52.234;5.186;2023-06-14T04:50:26;7.15;;;2.58;;
72301;SDS011;60235;52.234;5.186;2023-06-14T04:52:54;6.78;;;2.30;;
72301;SDS011;60235;52.234;5.186;2023-06-14T04:55:21;6.57;;;2.47;;
72301;SDS011;60235;52.234;5.186;2023-06-14T04:57:47;8.70;;;2.70;;
72301;SDS011;60235;52.234;5.186;2023-06-14T05:00:14;6.85;;;2.33;;
72301;SDS011;60235;52.234;5.186;2023-06-14T05:02:40;7.40;;;2.70;;
72301;SDS011;60235;52.234;5.186;2023-06-14T05:05:06;6.80;;;2.60;;
72301;SDS011;60235;52.234;5.186;2023-06-14T05:07:32;7.72;;;2.50;;
72301;SDS011;60235;52.234;5.186;2023-06-14T05:10:01;10.73;;;2.70;;
72301;SDS011;60235;52.234;5.186;2023-06-14T05:12:28;10.02;;;2.63;;
72301;SDS011;60235;52.234;5.186;2023-06-14T05:14:54;10.73;;;2.88;;
72301;SDS011;60235;52.234;5.186;2023-06-14T05:19:49;7.03;;;2.53;;
72301;SDS011;60235;52.234;5.186;2023-06-14T05:22:15;8.93;;;2.55;;
72301;SDS011;60235;52.234;5.186;2023-06-14T05:24:41;6.55;;;2.28;;
72301;SDS011;60235;52.234;5.186;2023-06-14T05:27:07;8.45;;;2.67;;
72301;SDS011;60235;52.234;5.186;2023-06-14T05:29:33;7.88;;;2.42;;
72301;SDS011;60235;52.234;5.186;2023-06-14T05:31:59;7.90;;;2.78;;
72301;SDS011;60235;52.234;5.186;2023-06-14T05:34:25;8.70;;;2.30;;
72301;SDS011;60235;52.234;5.186;2023-06-14T05:36:51;8.18;;;2.75;;
72301;SDS011;60235;52.234;5.186;2023-06-14T05:39:17;8.25;;;2.33;;
72301;SDS011;60235;52.234;5.186;2023-06-14T05:41:43;8.40;;;2.90;;
72301;SDS011;60235;52.234;5.186;2023-06-14T05:44:09;10.65;;;3.25;;
72301;SDS011;60235;52.234;5.186;2023-06-14T05:46:35;9.20;;;2.72;;
72301;SDS011;60235;52.234;5.186;2023-06-14T05:49:01;7.93;;;2.50;;
72301;SDS011;60235;52.234;5.186;2023-06-14T05:51:27;7.70;;;2.25;;
72301;SDS011;60235;52.234;5.186;2023-06-14T05:53:53;8.73;;;2.70;;
72301;SDS011;60235;52.234;5.186;2023-06-14T05:56:20;10.60;;;2.80;;
72301;SDS011;60235;52.234;5.186;2023-06-14T05:58:46;7.55;;;2.53;;
72301;SDS011;60235;52.234;5.186;2023-06-14T06:01:13;7.32;;;2.60;;
72301;SDS011;60235;52.234;5.186;2023-06-14T06:03:39;6.95;;;2.70;;
72301;SDS011;60235;52.234;5.186;2023-06-14T06:06:05;8.02;;;2.90;;
72301;SDS011;60235;52.234;5.186;2023-06-14T06:08:31;8.32;;;2.45;;
72301;SDS011;60235;52.234;5.186;2023-06-14T06:10:57;7.93;;;2.92;;
72301;SDS011;60235;52.234;5.186;2023-06-14T06:13:24;8.13;;;2.88;;
72301;SDS011;60235;52.234;5.186;2023-06-14T06:15:50;10.85;;;3.17;;
72301;SDS011;60235;52.234;5.186;2023-06-14T06:18:17;7.40;;;2.95;;
72301;SDS011;60235;52.234;5.186;2023-06-14T06:20:43;16.02;;;3.28;;
72301;SDS011;60235;52.234;5.186;2023-06-14T06:23:09;8.45;;;3.15;;
72301;SDS011;60235;52.234;5.186;2023-06-14T06:25:35;13.00;;;3.38;;
72301;SDS011;60235;52.234;5.186;2023-06-14T06:28:02;9.57;;;2.60;;
72301;SDS011;60235;52.234;5.186;2023-06-14T06:30:28;9.27;;;2.67;;
72301;SDS011;60235;52.234;5.186;2023-06-14T06:32:54;9.20;;;3.05;;
72301;SDS011;60235;52.234;5.186;2023-06-14T06:35:20;9.68;;;2.58;;
72301;SDS011;60235;52.234;5.186;2023-06-14T06:37:46;9.45;;;2.65;;
72301;SDS011;60235;52.234;5.186;2023-06-14T06:40:12;7.80;;;2.65;;
72301;SDS011;60235;52.234;5.186;2023-06-14T06:42:40;8.40;;;2.80;;
72301;SDS011;60235;52.234;5.186;2023-06-14T06:45:06;7.25;;;2.60;;
72301;SDS011;60235;52.234;5.186;2023-06-14T06:47:32;9.80;;;3.03;;
72301;SDS011;60235;52.234;5.186;2023-06-14T06:49:58;7.18;;;3.10;;
72301;SDS011;60235;52.234;5.186;2023-06-14T06:52:24;6.95;;;2.50;;
72301;SDS011;60235;52.234;5.186;2023-06-14T06:54:50;9.38;;;2.70;;
72301;SDS011;60235;52.234;5.186;2023-06-14T06:57:19;7.32;;;2.90;;
72301;SDS011;60235;52.234;5.186;2023-06-14T06:59:47;9.60;;;2.72;;
72301;SDS011;60235;52.234;5.186;2023-06-14T07:02:13;6.93;;;2.22;;
72301;SDS011;60235;52.234;5.186;2023-06-14T07:04:39;7.57;;;2.58;;
72301;SDS011;60235;52.234;5.186;2023-06-14T07:07:06;6.97;;;2.65;;
72301;SDS011;60235;52.234;5.186;2023-06-14T07:09:32;5.97;;;2.60;;
72301;SDS011;60235;52.234;5.186;2023-06-14T07:11:58;7.53;;;2.85;;
72301;SDS011;60235;52.234;5.186;2023-06-14T07:14:24;10.30;;;2.50;;
72301;SDS011;60235;52.234;5.186;2023-06-14T07:16:49;9.43;;;2.80;;
72301;SDS011;60235;52.234;5.186;2023-06-14T07:19:16;9.15;;;2.92;;
72301;SDS011;60235;52.234;5.186;2023-06-14T07:21:42;8.73;;;2.95;;
72301;SDS011;60235;52.234;5.186;2023-06-14T07:24:08;8.73;;;2.60;;
72301;SDS011;60235;52.234;5.186;2023-06-14T07:26:34;5.60;;;2.50;;
72301;SDS011;60235;52.234;5.186;2023-06-14T07:29:00;8.23;;;2.58;;
72301;SDS011;60235;52.234;5.186;2023-06-14T07:31:27;10.25;;;3.08;;
72301;SDS011;60235;52.234;5.186;2023-06-14T07:33:53;12.13;;;2.78;;
72301;SDS011;60235;52.234;5.186;2023-06-14T07:36:19;10.30;;;2.75;;
72301;SDS011;60235;52.234;5.186;2023-06-14T07:38:45;15.15;;;2.83;;
72301;SDS011;60235;52.234;5.186;2023-06-14T07:41:11;12.95;;;2.90;;
72301;SDS011;60235;52.234;5.186;2023-06-14T07:43:37;9.77;;;2.85;;
72301;SDS011;60235;52.234;5.186;2023-06-14T07:46:03;8.38;;;2.60;;
72301;SDS011;60235;52.234;5.186;2023-06-14T07:48:30;8.50;;;2.47;;
72301;SDS011;60235;52.234;5.186;2023-06-14T07:50:56;7.82;;;2.92;;
72301;SDS011;60235;52.234;5.186;2023-06-14T07:53:22;7.30;;;2.63;;
72301;SDS011;60235;52.234;5.186;2023-06-14T07:55:48;6.80;;;2.53;;
72301;SDS011;60235;52.234;5.186;2023-06-14T07:58:15;7.55;;;2.63;;
72301;SDS011;60235;52.234;5.186;2023-06-14T08:00:41;7.15;;;2.40;;
72301;SDS011;60235;52.234;5.186;2023-06-14T08:03:07;9.38;;;2.63;;
72301;SDS011;60235;52.234;5.186;2023-06-14T08:05:33;6.10;;;2.55;;
72301;SDS011;60235;52.234;5.186;2023-06-14T08:08:00;8.68;;;2.40;;
72301;SDS011;60235;52.234;5.186;2023-06-14T08:10:26;7.80;;;2.33;;
72301;SDS011;60235;52.234;5.186;2023-06-14T08:12:52;7.15;;;2.13;;
72301;SDS011;60235;52.234;5.186;2023-06-14T08:15:18;7.28;;;2.38;;
72301;SDS011;60235;52.234;5.186;2023-06-14T08:17:44;6.47;;;1.70;;
72301;SDS011;60235;52.234;5.186;2023-06-14T08:20:11;6.55;;;2.50;;
72301;SDS011;60235;52.234;5.186;2023-06-14T08:22:37;7.63;;;2.30;;
72301;SDS011;60235;52.234;5.186;2023-06-14T08:25:04;7.05;;;1.75;;
72301;SDS011;60235;52.234;5.186;2023-06-14T08:27:31;6.50;;;2.20;;
72301;SDS011;60235;52.234;5.186;2023-06-14T08:29:57;4.55;;;1.65;;
72301;SDS011;60235;52.234;5.186;2023-06-14T08:32:23;7.72;;;2.25;;
72301;SDS011;60235;52.234;5.186;2023-06-14T08:34:49;7.35;;;2.42;;
72301;SDS011;60235;52.234;5.186;2023-06-14T08:37:15;7.20;;;1.90;;
72301;SDS011;60235;52.234;5.186;2023-06-14T08:39:41;6.57;;;1.90;;
72301;SDS011;60235;52.234;5.186;2023-06-14T08:42:09;8.90;;;2.03;;
72301;SDS011;60235;52.234;5.186;2023-06-14T08:44:35;8.32;;;2.00;;
72301;SDS011;60235;52.234;5.186;2023-06-14T08:47:01;7.43;;;2.05;;
72301;SDS011;60235;52.234;5.186;2023-06-14T08:49:31;5.07;;;1.80;;
72301;SDS011;60235;52.234;5.186;2023-06-14T08:51:57;7.10;;;1.90;;
72301;SDS011;60235;52.234;5.186;2023-06-14T08:54:25;9.32;;;1.88;;
72301;SDS011;60235;52.234;5.186;2023-06-14T08:59:18;5.10;;;1.70;;
72301;SDS011;60235;52.234;5.186;2023-06-14T09:01:46;6.28;;;1.92;;
72301;SDS011;60235;52.234;5.186;2023-06-14T09:04:12;6.38;;;1.73;;
72301;SDS011;60235;52.234;5.186;2023-06-14T09:06:39;6.75;;;1.88;;
72301;SDS011;60235;52.234;5.186;2023-06-14T09:09:05;4.93;;;1.80;;
72301;SDS011;60235;52.234;5.186;2023-06-14T09:11:32;9.82;;;2.15;;
72301;SDS011;60235;52.234;5.186;2023-06-14T09:13:58;6.15;;;1.80;;
72301;SDS011;60235;52.234;5.186;2023-06-14T09:16:25;6.10;;;2.03;;
72301;SDS011;60235;52.234;5.186;2023-06-14T09:18:51;6.15;;;1.90;;
72301;SDS011;60235;52.234;5.186;2023-06-14T09:21:17;5.22;;;1.88;;
72301;SDS011;60235;52.234;5.186;2023-06-14T09:23:47;6.78;;;1.90;;
72301;SDS011;60235;52.234;5.186;2023-06-14T09:26:14;8.80;;;2.17;;
72301;SDS011;60235;52.234;5.186;2023-06-14T09:28:43;7.97;;;1.88;;
72301;SDS011;60235;52.234;5.186;2023-06-14T09:31:13;5.45;;;2.00;;
72301;SDS011;60235;52.234;5.186;2023-06-14T09:33:43;6.53;;;1.88;;
72301;SDS011;60235;52.234;5.186;2023-06-14T09:36:16;6.07;;;1.92;;
72301;SDS011;60235;52.234;5.186;2023-06-14T09:38:43;6.95;;;1.92;;
72301;SDS011;60235;52.234;5.186;2023-06-14T09:41:17;8.23;;;1.88;;
72301;SDS011;60235;52.234;5.186;2023-06-14T09:43:43;5.50;;;2.05;;
72301;SDS011;60235;52.234;5.186;2023-06-14T09:46:10;6.00;;;2.08;;
72301;SDS011;60235;52.234;5.186;2023-06-14T09:48:36;5.00;;;1.98;;
72301;SDS011;60235;52.234;5.186;2023-06-14T09:51:07;8.27;;;2.17;;
72301;SDS011;60235;52.234;5.186;2023-06-14T09:53:33;5.57;;;1.80;;
72301;SDS011;60235;52.234;5.186;2023-06-14T09:56:01;5.25;;;1.75;;
72301;SDS011;60235;52.234;5.186;2023-06-14T09:58:27;6.93;;;1.58;;
72301;SDS011;60235;52.234;5.186;2023-06-14T10:00:54;6.40;;;1.70;;
72301;SDS011;60235;52.234;5.186;2023-06-14T10:03:24;6.65;;;1.98;;
72301;SDS011;60235;52.234;5.186;2023-06-14T10:05:51;6.88;;;2.05;;
72301;SDS011;60235;52.234;5.186;2023-06-14T10:08:18;6.53;;;2.00;;
72301;SDS011;60235;52.234;5.186;2023-06-14T10:10:45;7.40;;;1.98;;
72301;SDS011;60235;52.234;5.186;2023-06-14T10:13:11;5.30;;;1.60;;
72301;SDS011;60235;52.234;5.186;2023-06-14T10:18:31;6.10;;;1.77;;
72301;SDS011;60235;52.234;5.186;2023-06-14T10:23:44;7.05;;;1.70;;
72301;SDS011;60235;52.234;5.186;2023-06-14T10:26:20;6.25;;;2.20;;
72301;SDS011;60235;52.234;5.186;2023-06-14T10:29:00;5.05;;;1.80;;
72301;SDS011;60235;52.234;5.186;2023-06-14T10:31:39;5.47;;;1.98;;
72301;SDS011;60235;52.234;5.186;2023-06-14T10:34:06;6.22;;;1.60;;
72301;SDS011;60235;52.234;5.186;2023-06-14T10:36:32;5.00;;;1.65;;
72301;SDS011;60235;52.234;5.186;2023-06-14T10:39:15;5.13;;;1.70;;
72301;SDS011;60235;52.234;5.186;2023-06-14T10:41:42;8.15;;;1.70;;
72301;SDS011;60235;52.234;5.186;2023-06-14T10:46:40;9.85;;;1.90;;
72301;SDS011;60235;52.234;5.186;2023-06-14T10:49:11;7.25;;;1.90;;
72301;SDS011;60235;52.234;5.186;2023-06-14T10:51:41;5.20;;;2.00;;
72301;SDS011;60235;52.234;5.186;2023-06-14T10:54:14;6.32;;;1.90;;
72301;SDS011;60235;52.234;5.186;2023-06-14T10:56:50;4.93;;;1.73;;
72301;SDS011;60235;52.234;5.186;2023-06-14T10:59:17;8.02;;;1.80;;
72301;SDS011;60235;52.234;5.186;2023-06-14T11:02:03;7.30;;;1.85;;
72301;SDS011;60235;52.234;5.186;2023-06-14T11:04:47;5.85;;;1.77;;
72301;SDS011;60235;52.234;5.186;2023-06-14T11:10:05;6.78;;;2.10;;
72301;SDS011;60235;52.234;5.186;2023-06-14T11:12:35;4.68;;;1.60;;
72301;SDS011;60235;52.234;5.186;2023-06-14T11:15:02;5.78;;;1.60;;
72301;SDS011;60235;52.234;5.186;2023-06-14T11:17:28;5.20;;;1.80;;
72301;SDS011;60235;52.234;5.186;2023-06-14T11:20:10;6.50;;;1.70;;
72301;SDS011;60235;52.234;5.186;2023-06-14T11:22:44;4.63;;;1.80;;
72301;SDS011;60235;52.234;5.186;2023-06-14T11:25:13;5.22;;;1.65;;
72301;SDS011;60235;52.234;5.186;2023-06-14T11:27:42;5.35;;;1.70;;
72301;SDS011;60235;52.234;5.186;2023-06-14T11:30:09;9.18;;;2.13;;
72301;SDS011;60235;52.234;5.186;2023-06-14T11:32:35;6.47;;;1.80;;
72301;SDS011;60235;52.234;5.186;2023-06-14T11:35:02;3.85;;;1.45;;
72301;SDS011;60235;52.234;5.186;2023-06-14T11:37:29;6.70;;;1.63;;
72301;SDS011;60235;52.234;5.186;2023-06-14T11:39:59;9.85;;;2.17;;
72301;SDS011;60235;52.234;5.186;2023-06-14T11:42:28;7.22;;;1.70;;
72301;SDS011;60235;52.234;5.186;2023-06-14T11:44:55;5.78;;;1.65;;
72301;SDS011;60235;52.234;5.186;2023-06-14T11:47:21;5.70;;;1.63;;
72301;SDS011;60235;52.234;5.186;2023-06-14T11:49:47;7.07;;;1.85;;
72301;SDS011;60235;52.234;5.186;2023-06-14T11:52:14;6.57;;;1.85;;
72301;SDS011;60235;52.234;5.186;2023-06-14T11:54:40;6.05;;;2.00;;
72301;SDS011;60235;52.234;5.186;2023-06-14T11:57:07;5.03;;;1.70;;
72301;SDS011;60235;52.234;5.186;2023-06-14T11:59:40;6.32;;;1.90;;
72301;SDS011;60235;52.234;5.186;2023-06-14T12:02:06;4.32;;;1.58;;
72301;SDS011;60235;52.234;5.186;2023-06-14T12:04:32;5.30;;;1.67;;
72301;SDS011;60235;52.234;5.186;2023-06-14T12:07:19;4.60;;;1.67;;
72301;SDS011;60235;52.234;5.186;2023-06-14T12:12:21;5.72;;;1.85;;
72301;SDS011;60235;52.234;5.186;2023-06-14T12:14:47;5.57;;;1.85;;
72301;SDS011;60235;52.234;5.186;2023-06-14T12:17:16;7.72;;;2.08;;
72301;SDS011;60235;52.234;5.186;2023-06-14T12:19:43;4.88;;;1.70;;
72301;SDS011;60235;52.234;5.186;2023-06-14T12:22:09;4.32;;;1.52;;
72301;SDS011;60235;52.234;5.186;2023-06-14T12:24:35;5.50;;;1.70;;
72301;SDS011;60235;52.234;5.186;2023-06-14T12:27:02;4.93;;;1.80;;
72301;SDS011;60235;52.234;5.186;2023-06-14T12:29:29;7.32;;;1.65;;
72301;SDS011;60235;52.234;5.186;2023-06-14T12:31:55;4.70;;;1.80;;
72301;SDS011;60235;52.234;5.186;2023-06-14T12:34:25;7.20;;;1.92;;
72301;SDS011;60235;52.234;5.186;2023-06-14T12:36:52;6.53;;;1.90;;
72301;SDS011;60235;52.234;5.186;2023-06-14T12:39:18;4.22;;;1.65;;
72301;SDS011;60235;52.234;5.186;2023-06-14T12:41:44;6.82;;;1.95;;
72301;SDS011;60235;52.234;5.186;2023-06-14T12:44:11;6.00;;;1.80;;
72301;SDS011;60235;52.234;5.186;2023-06-14T12:46:37;8.20;;;1.67;;
72301;SDS011;60235;52.234;5.186;2023-06-14T12:49:09;5.35;;;1.58;;
72301;SDS011;60235;52.234;5.186;2023-06-14T12:51:36;9.98;;;1.70;;
72301;SDS011;60235;52.234;5.186;2023-06-14T12:54:02;6.00;;;1.90;;
72301;SDS011;60235;52.234;5.186;2023-06-14T12:56:28;4.82;;;1.75;;
72301;SDS011;60235;52.234;5.186;2023-06-14T12:58:54;5.78;;;1.75;;
72301;SDS011;60235;52.234;5.186;2023-06-14T13:01:20;5.93;;;1.67;;
72301;SDS011;60235;52.234;5.186;2023-06-14T13:03:46;7.43;;;1.80;;
72301;SDS011;60235;52.234;5.186;2023-06-14T13:06:13;6.10;;;1.90;;
72301;SDS011;60235;52.234;5.186;2023-06-14T13:08:39;7.30;;;1.80;;
72301;SDS011;60235;52.234;5.186;2023-06-14T13:11:05;5.55;;;1.70;;
72301;SDS011;60235;52.234;5.186;2023-06-14T13:13:31;5.35;;;1.70;;
72301;SDS011;60235;52.234;5.186;2023-06-14T13:15:57;6.00;;;1.88;;
72301;SDS011;60235;52.234;5.186;2023-06-14T13:18:23;6.72;;;1.60;;
72301;SDS011;60235;52.234;5.186;2023-06-14T13:20:49;6.43;;;1.95;;
72301;SDS011;60235;52.234;5.186;2023-06-14T13:23:15;5.53;;;1.60;;
72301;SDS011;60235;52.234;5.186;2023-06-14T13:25:42;5.57;;;1.88;;
72301;SDS011;60235;52.234;5.186;2023-06-14T13:28:08;6.75;;;1.88;;
72301;SDS011;60235;52.234;5.186;2023-06-14T13:30:34;5.88;;;1.70;;
72301;SDS011;60235;52.234;5.186;2023-06-14T13:33:00;6.15;;;1.65;;
72301;SDS011;60235;52.234;5.186;2023-06-14T13:35:26;5.47;;;1.98;;
72301;SDS011;60235;52.234;5.186;2023-06-14T13:37:52;6.55;;;1.83;;
72301;SDS011;60235;52.234;5.186;2023-06-14T13:40:18;8.02;;;2.33;;
72301;SDS011;60235;52.234;5.186;2023-06-14T13:42:45;5.97;;;1.80;;
72301;SDS011;60235;52.234;5.186;2023-06-14T13:45:11;5.07;;;1.85;;
72301;SDS011;60235;52.234;5.186;2023-06-14T13:47:38;4.43;;;1.63;;
72301;SDS011;60235;52.234;5.186;2023-06-14T13:50:04;5.78;;;2.00;;
72301;SDS011;60235;52.234;5.186;2023-06-14T13:52:30;6.38;;;1.80;;
72301;SDS011;60235;52.234;5.186;2023-06-14T13:54:56;7.43;;;1.80;;
72301;SDS011;60235;52.234;5.186;2023-06-14T13:57:22;4.78;;;1.55;;
72301;SDS011;60235;52.234;5.186;2023-06-14T13:59:48;6.82;;;1.85;;
72301;SDS011;60235;52.234;5.186;2023-06-14T14:02:14;6.25;;;1.88;;
72301;SDS011;60235;52.234;5.186;2023-06-14T14:04:41;6.93;;;2.08;;
72301;SDS011;60235;52.234;5.186;2023-06-14T14:07:07;6.10;;;1.75;;
72301;SDS011;60235;52.234;5.186;2023-06-14T14:09:33;7.40;;;2.05;;
72301;SDS011;60235;52.234;5.186;2023-06-14T14:12:00;6.35;;;1.95;;
72301;SDS011;60235;52.234;5.186;2023-06-14T14:14:27;4.75;;;1.40;;
72301;SDS011;60235;52.234;5.186;2023-06-14T14:16:53;5.38;;;1.60;;
72301;SDS011;60235;52.234;5.186;2023-06-14T14:19:22;5.05;;;1.75;;
72301;SDS011;60235;52.234;5.186;2023-06-14T14:21:48;5.25;;;1.83;;
72301;SDS011;60235;52.234;5.186;2023-06-14T14:24:14;6.30;;;1.77;;
72301;SDS011;60235;52.234;5.186;2023-06-14T14:26:41;7.80;;;1.70;;
72301;SDS011;60235;52.234;5.186;2023-06-14T14:29:07;6.43;;;1.50;;
72301;SDS011;60235;52.234;5.186;2023-06-14T14:31:33;7.95;;;1.83;;
72301;SDS011;60235;52.234;5.186;2023-06-14T14:34:00;9.63;;;1.95;;
72301;SDS011;60235;52.234;5.186;2023-06-14T14:36:26;7.40;;;2.05;;
72301;SDS011;60235;52.234;5.186;2023-06-14T14:38:52;5.10;;;1.95;;
72301;SDS011;60235;52.234;5.186;2023-06-14T14:41:17;5.45;;;1.80;;
72301;SDS011;60235;52.234;5.186;2023-06-14T14:43:43;6.88;;;1.70;;
72301;SDS011;60235;52.234;5.186;2023-06-14T14:46:09;4.47;;;1.70;;
72301;SDS011;60235;52.234;5.186;2023-06-14T14:48:35;3.83;;;1.55;;
72301;SDS011;60235;52.234;5.186;2023-06-14T14:51:01;4.60;;;1.63;;
72301;SDS011;60235;52.234;5.186;2023-06-14T14:53:28;5.78;;;1.95;;
72301;SDS011;60235;52.234;5.186;2023-06-14T14:55:54;5.57;;;1.60;;
72301;SDS011;60235;52.234;5.186;2023-06-14T14:58:20;8.18;;;1.95;;
72301;SDS011;60235;52.234;5.186;2023-06-14T15:00:46;6.20;;;1.70;;
72301;SDS011;60235;52.234;5.186;2023-06-14T15:03:13;5.20;;;1.60;;
72301;SDS011;60235;52.234;5.186;2023-06-14T15:05:39;7.75;;;1.95;;
72301;SDS011;60235;52.234;5.186;2023-06-14T15:08:05;6.45;;;1.70;;